ADDS TAF Data INFO
IDs: Format: Raw Decoded Include METARs

Data at: 1935 UTC 17 Jul 2018

KECG 171728Z 1718/1818 22015KT P6SM SCT035 BKN150
  FM172300 21012KT P6SM VCTS BKN050CB
  TEMPO 1800/1803 5SM SHRA BKN040
  FM180300 23007KT P6SM -SHRA BKN040
  FM180700 33006KT P6SM SCT040 BKN100